sensor_id;sensor_type;location;lat;lon;timestamp;P1;durP1;ratioP1;P2;durP2;ratioP2
46971;SDS011;32722;43.486;2.766;2022-10-16T00:00:45;7.30;;;6.60;;
46971;SDS011;32722;43.486;2.766;2022-10-16T00:03:11;9.25;;;6.60;;
46971;SDS011;32722;43.486;2.766;2022-10-16T00:05:38;9.82;;;6.70;;
46971;SDS011;32722;43.486;2.766;2022-10-16T00:08:04;7.10;;;6.40;;
46971;SDS011;32722;43.486;2.766;2022-10-16T00:10:31;8.18;;;6.57;;
46971;SDS011;32722;43.486;2.766;2022-10-16T00:12:57;10.98;;;6.38;;
46971;SDS011;32722;43.486;2.766;2022-10-16T00:15:23;12.07;;;6.97;;
46971;SDS011;32722;43.486;2.766;2022-10-16T00:17:49;7.95;;;6.63;;
46971;SDS011;32722;43.486;2.766;2022-10-16T00:20:15;10.93;;;6.50;;
46971;SDS011;32722;43.486;2.766;2022-10-16T00:22:41;8.65;;;6.93;;
46971;SDS011;32722;43.486;2.766;2022-10-16T00:25:07;7.93;;;6.32;;
46971;SDS011;32722;43.486;2.766;2022-10-16T00:27:34;7.68;;;6.13;;
46971;SDS011;32722;43.486;2.766;2022-10-16T00:30:00;9.88;;;7.03;;
46971;SDS011;32722;43.486;2.766;2022-10-16T00:32:26;7.93;;;7.13;;
46971;SDS011;32722;43.486;2.766;2022-10-16T00:34:52;11.05;;;7.20;;
46971;SDS011;32722;43.486;2.766;2022-10-16T00:37:19;8.50;;;6.68;;
46971;SDS011;32722;43.486;2.766;2022-10-16T00:39:46;9.55;;;7.07;;
46971;SDS011;32722;43.486;2.766;2022-10-16T00:42:16;8.80;;;6.93;;
46971;SDS011;32722;43.486;2.766;2022-10-16T00:44:44;7.75;;;6.95;;
46971;SDS011;32722;43.486;2.766;2022-10-16T00:47:12;8.75;;;6.70;;
46971;SDS011;32722;43.486;2.766;2022-10-16T00:49:39;9.70;;;7.25;;
46971;SDS011;32722;43.486;2.766;2022-10-16T00:52:05;10.32;;;6.78;;
46971;SDS011;32722;43.486;2.766;2022-10-16T00:54:31;11.10;;;7.00;;
46971;SDS011;32722;43.486;2.766;2022-10-16T00:56:59;7.75;;;6.32;;
46971;SDS011;32722;43.486;2.766;2022-10-16T00:59:27;11.43;;;6.53;;
46971;SDS011;32722;43.486;2.766;2022-10-16T01:01:54;9.50;;;7.20;;
46971;SDS011;32722;43.486;2.766;2022-10-16T01:04:20;11.35;;;7.18;;
46971;SDS011;32722;43.486;2.766;2022-10-16T01:12:01;8.88;;;6.72;;
46971;SDS011;32722;43.486;2.766;2022-10-16T01:17:02;11.02;;;6.63;;
46971;SDS011;32722;43.486;2.766;2022-10-16T01:21:59;9.65;;;7.20;;
46971;SDS011;32722;43.486;2.766;2022-10-16T01:24:38;8.95;;;7.45;;
46971;SDS011;32722;43.486;2.766;2022-10-16T01:34:53;10.02;;;7.47;;
46971;SDS011;32722;43.486;2.766;2022-10-16T01:37:27;12.60;;;7.78;;
46971;SDS011;32722;43.486;2.766;2022-10-16T01:39:55;14.25;;;7.78;;
46971;SDS011;32722;43.486;2.766;2022-10-16T01:42:24;13.93;;;8.73;;
46971;SDS011;32722;43.486;2.766;2022-10-16T01:44:54;14.73;;;8.75;;
46971;SDS011;32722;43.486;2.766;2022-10-16T01:47:22;12.48;;;7.60;;
46971;SDS011;32722;43.486;2.766;2022-10-16T01:49:49;11.15;;;8.70;;
46971;SDS011;32722;43.486;2.766;2022-10-16T01:52:17;14.18;;;7.43;;
46971;SDS011;32722;43.486;2.766;2022-10-16T01:54:45;10.77;;;7.65;;
46971;SDS011;32722;43.486;2.766;2022-10-16T01:57:12;14.80;;;8.52;;
46971;SDS011;32722;43.486;2.766;2022-10-16T01:59:42;12.48;;;9.32;;
46971;SDS011;32722;43.486;2.766;2022-10-16T02:02:10;18.13;;;9.17;;
46971;SDS011;32722;43.486;2.766;2022-10-16T02:04:42;10.90;;;8.63;;
46971;SDS011;32722;43.486;2.766;2022-10-16T02:07:09;16.40;;;9.27;;
46971;SDS011;32722;43.486;2.766;2022-10-16T02:09:36;15.45;;;9.45;;
46971;SDS011;32722;43.486;2.766;2022-10-16T02:12:36;12.90;;;8.60;;
46971;SDS011;32722;43.486;2.766;2022-10-16T02:14:55;13.85;;;9.40;;
46971;SDS011;32722;43.486;2.766;2022-10-16T02:17:21;16.00;;;10.45;;
46971;SDS011;32722;43.486;2.766;2022-10-16T02:19:48;16.17;;;9.90;;
46971;SDS011;32722;43.486;2.766;2022-10-16T02:22:16;19.73;;;10.02;;
46971;SDS011;32722;43.486;2.766;2022-10-16T02:24:47;19.85;;;9.95;;
46971;SDS011;32722;43.486;2.766;2022-10-16T02:29:46;15.10;;;10.63;;
46971;SDS011;32722;43.486;2.766;2022-10-16T02:32:15;15.45;;;10.20;;
46971;SDS011;32722;43.486;2.766;2022-10-16T02:34:43;20.88;;;11.90;;
46971;SDS011;32722;43.486;2.766;2022-10-16T02:37:10;17.13;;;11.73;;
46971;SDS011;32722;43.486;2.766;2022-10-16T02:39:36;18.55;;;10.82;;
46971;SDS011;32722;43.486;2.766;2022-10-16T02:42:02;19.38;;;10.90;;
46971;SDS011;32722;43.486;2.766;2022-10-16T02:44:28;20.33;;;12.63;;
46971;SDS011;32722;43.486;2.766;2022-10-16T02:46:55;18.92;;;11.48;;
46971;SDS011;32722;43.486;2.766;2022-10-16T02:49:21;19.10;;;11.95;;
46971;SDS011;32722;43.486;2.766;2022-10-16T02:51:47;18.30;;;11.88;;
46971;SDS011;32722;43.486;2.766;2022-10-16T02:54:13;23.02;;;13.25;;
46971;SDS011;32722;43.486;2.766;2022-10-16T02:56:39;21.70;;;14.13;;
46971;SDS011;32722;43.486;2.766;2022-10-16T02:59:05;18.15;;;12.63;;
46971;SDS011;32722;43.486;2.766;2022-10-16T03:01:31;20.98;;;13.30;;
46971;SDS011;32722;43.486;2.766;2022-10-16T03:03:57;20.83;;;12.57;;
46971;SDS011;32722;43.486;2.766;2022-10-16T03:06:23;21.42;;;13.38;;
46971;SDS011;32722;43.486;2.766;2022-10-16T03:08:49;18.13;;;13.40;;
46971;SDS011;32722;43.486;2.766;2022-10-16T03:11:16;19.95;;;13.00;;
46971;SDS011;32722;43.486;2.766;2022-10-16T03:13:42;18.83;;;12.70;;
46971;SDS011;32722;43.486;2.766;2022-10-16T03:16:08;22.65;;;14.00;;
46971;SDS011;32722;43.486;2.766;2022-10-16T03:18:34;21.27;;;14.30;;
46971;SDS011;32722;43.486;2.766;2022-10-16T03:21:00;22.60;;;14.90;;
46971;SDS011;32722;43.486;2.766;2022-10-16T03:23:27;24.00;;;16.10;;
46971;SDS011;32722;43.486;2.766;2022-10-16T03:25:53;20.73;;;15.05;;
46971;SDS011;32722;43.486;2.766;2022-10-16T03:28:20;31.27;;;15.70;;
46971;SDS011;32722;43.486;2.766;2022-10-16T03:30:46;23.25;;;14.60;;
46971;SDS011;32722;43.486;2.766;2022-10-16T03:33:12;29.92;;;16.98;;
46971;SDS011;32722;43.486;2.766;2022-10-16T03:35:38;23.88;;;16.65;;
46971;SDS011;32722;43.486;2.766;2022-10-16T03:38:04;24.00;;;15.45;;
46971;SDS011;32722;43.486;2.766;2022-10-16T03:40:30;29.65;;;16.55;;
46971;SDS011;32722;43.486;2.766;2022-10-16T03:42:59;28.85;;;17.95;;
46971;SDS011;32722;43.486;2.766;2022-10-16T03:45:26;30.10;;;18.83;;
46971;SDS011;32722;43.486;2.766;2022-10-16T03:47:52;22.52;;;17.75;;
46971;SDS011;32722;43.486;2.766;2022-10-16T03:50:18;25.90;;;16.73;;
46971;SDS011;32722;43.486;2.766;2022-10-16T03:52:44;24.42;;;18.08;;
46971;SDS011;32722;43.486;2.766;2022-10-16T03:55:10;25.50;;;19.23;;
46971;SDS011;32722;43.486;2.766;2022-10-16T03:57:37;27.35;;;17.05;;
46971;SDS011;32722;43.486;2.766;2022-10-16T04:00:03;27.55;;;19.45;;
46971;SDS011;32722;43.486;2.766;2022-10-16T04:02:29;25.88;;;18.55;;
46971;SDS011;32722;43.486;2.766;2022-10-16T04:04:55;28.52;;;19.63;;
46971;SDS011;32722;43.486;2.766;2022-10-16T04:07:21;29.40;;;18.42;;
46971;SDS011;32722;43.486;2.766;2022-10-16T04:09:47;23.38;;;17.20;;
46971;SDS011;32722;43.486;2.766;2022-10-16T04:12:13;29.55;;;19.67;;
46971;SDS011;32722;43.486;2.766;2022-10-16T04:14:40;28.83;;;19.50;;
46971;SDS011;32722;43.486;2.766;2022-10-16T04:17:06;32.30;;;20.63;;
46971;SDS011;32722;43.486;2.766;2022-10-16T04:19:32;23.42;;;18.55;;
46971;SDS011;32722;43.486;2.766;2022-10-16T04:21:58;25.52;;;19.50;;
46971;SDS011;32722;43.486;2.766;2022-10-16T04:24:24;27.27;;;18.73;;
46971;SDS011;32722;43.486;2.766;2022-10-16T04:26:50;27.35;;;19.45;;
46971;SDS011;32722;43.486;2.766;2022-10-16T04:29:16;28.27;;;17.92;;
46971;SDS011;32722;43.486;2.766;2022-10-16T04:31:42;30.98;;;19.45;;
46971;SDS011;32722;43.486;2.766;2022-10-16T04:34:08;25.77;;;17.65;;
46971;SDS011;32722;43.486;2.766;2022-10-16T04:36:34;28.73;;;19.73;;
46971;SDS011;32722;43.486;2.766;2022-10-16T04:39:01;31.73;;;20.10;;
46971;SDS011;32722;43.486;2.766;2022-10-16T04:41:27;29.20;;;21.30;;
46971;SDS011;32722;43.486;2.766;2022-10-16T04:43:53;29.15;;;19.92;;
46971;SDS011;32722;43.486;2.766;2022-10-16T04:46:19;26.73;;;20.88;;
46971;SDS011;32722;43.486;2.766;2022-10-16T04:48:45;34.80;;;21.10;;
46971;SDS011;32722;43.486;2.766;2022-10-16T04:51:11;30.65;;;20.92;;
46971;SDS011;32722;43.486;2.766;2022-10-16T04:53:38;27.50;;;20.75;;
46971;SDS011;32722;43.486;2.766;2022-10-16T04:56:04;27.50;;;20.30;;
46971;SDS011;32722;43.486;2.766;2022-10-16T04:58:30;32.17;;;19.35;;
46971;SDS011;32722;43.486;2.766;2022-10-16T05:00:56;31.65;;;20.70;;
46971;SDS011;32722;43.486;2.766;2022-10-16T05:03:22;29.50;;;21.63;;
46971;SDS011;32722;43.486;2.766;2022-10-16T05:05:48;27.73;;;21.83;;
46971;SDS011;32722;43.486;2.766;2022-10-16T05:08:15;25.10;;;20.73;;
46971;SDS011;32722;43.486;2.766;2022-10-16T05:10:42;26.58;;;18.98;;
46971;SDS011;32722;43.486;2.766;2022-10-16T05:13:08;27.08;;;21.75;;
46971;SDS011;32722;43.486;2.766;2022-10-16T05:15:34;30.15;;;21.17;;
46971;SDS011;32722;43.486;2.766;2022-10-16T05:18:01;33.08;;;21.40;;
46971;SDS011;32722;43.486;2.766;2022-10-16T05:20:27;28.27;;;20.80;;
46971;SDS011;32722;43.486;2.766;2022-10-16T05:22:53;29.73;;;20.00;;
46971;SDS011;32722;43.486;2.766;2022-10-16T05:25:19;34.08;;;22.63;;
46971;SDS011;32722;43.486;2.766;2022-10-16T05:27:49;32.47;;;20.00;;
46971;SDS011;32722;43.486;2.766;2022-10-16T05:30:15;29.15;;;20.50;;
46971;SDS011;32722;43.486;2.766;2022-10-16T05:32:45;25.75;;;20.65;;
46971;SDS011;32722;43.486;2.766;2022-10-16T05:35:11;25.70;;;20.95;;
46971;SDS011;32722;43.486;2.766;2022-10-16T05:37:38;29.77;;;19.73;;
46971;SDS011;32722;43.486;2.766;2022-10-16T05:40:04;29.63;;;21.17;;
46971;SDS011;32722;43.486;2.766;2022-10-16T05:42:30;26.40;;;20.15;;
46971;SDS011;32722;43.486;2.766;2022-10-16T05:44:56;30.27;;;20.10;;
46971;SDS011;32722;43.486;2.766;2022-10-16T05:47:22;28.02;;;21.90;;
46971;SDS011;32722;43.486;2.766;2022-10-16T05:49:48;32.05;;;20.83;;
46971;SDS011;32722;43.486;2.766;2022-10-16T05:52:14;28.77;;;22.02;;
46971;SDS011;32722;43.486;2.766;2022-10-16T05:54:41;31.48;;;21.40;;
46971;SDS011;32722;43.486;2.766;2022-10-16T05:57:07;32.10;;;21.98;;
46971;SDS011;32722;43.486;2.766;2022-10-16T05:59:33;32.78;;;22.88;;
46971;SDS011;32722;43.486;2.766;2022-10-16T06:01:59;33.60;;;23.30;;
46971;SDS011;32722;43.486;2.766;2022-10-16T06:04:25;36.42;;;22.77;;
46971;SDS011;32722;43.486;2.766;2022-10-16T06:06:51;32.05;;;21.60;;
46971;SDS011;32722;43.486;2.766;2022-10-16T06:09:17;33.08;;;23.02;;
46971;SDS011;32722;43.486;2.766;2022-10-16T06:11:43;27.77;;;20.65;;
46971;SDS011;32722;43.486;2.766;2022-10-16T06:14:09;27.83;;;21.08;;
46971;SDS011;32722;43.486;2.766;2022-10-16T06:16:36;30.70;;;21.20;;
46971;SDS011;32722;43.486;2.766;2022-10-16T06:19:03;27.85;;;20.98;;
46971;SDS011;32722;43.486;2.766;2022-10-16T06:21:31;29.45;;;21.80;;
46971;SDS011;32722;43.486;2.766;2022-10-16T06:23:57;27.80;;;20.15;;
46971;SDS011;32722;43.486;2.766;2022-10-16T06:26:25;31.48;;;21.77;;
46971;SDS011;32722;43.486;2.766;2022-10-16T06:28:51;27.30;;;21.23;;
46971;SDS011;32722;43.486;2.766;2022-10-16T06:31:17;30.73;;;20.60;;
46971;SDS011;32722;43.486;2.766;2022-10-16T06:33:43;27.30;;;20.42;;
46971;SDS011;32722;43.486;2.766;2022-10-16T06:36:12;24.20;;;18.75;;
46971;SDS011;32722;43.486;2.766;2022-10-16T06:38:39;27.55;;;19.30;;
46971;SDS011;32722;43.486;2.766;2022-10-16T06:41:06;29.40;;;19.63;;
46971;SDS011;32722;43.486;2.766;2022-10-16T06:43:33;27.23;;;19.05;;
46971;SDS011;32722;43.486;2.766;2022-10-16T06:46:02;22.67;;;18.80;;
46971;SDS011;32722;43.486;2.766;2022-10-16T06:48:29;21.80;;;17.90;;
46971;SDS011;32722;43.486;2.766;2022-10-16T06:50:59;27.40;;;18.38;;
46971;SDS011;32722;43.486;2.766;2022-10-16T06:53:26;24.90;;;18.00;;
46971;SDS011;32722;43.486;2.766;2022-10-16T06:55:52;30.00;;;16.70;;
46971;SDS011;32722;43.486;2.766;2022-10-16T06:58:19;20.05;;;16.17;;
46971;SDS011;32722;43.486;2.766;2022-10-16T07:00:45;25.48;;;19.33;;
46971;SDS011;32722;43.486;2.766;2022-10-16T07:03:11;19.20;;;16.75;;
46971;SDS011;32722;43.486;2.766;2022-10-16T07:05:41;20.92;;;15.98;;
46971;SDS011;32722;43.486;2.766;2022-10-16T07:08:07;21.83;;;16.60;;
46971;SDS011;32722;43.486;2.766;2022-10-16T07:10:34;24.15;;;15.95;;
46971;SDS011;32722;43.486;2.766;2022-10-16T07:13:00;22.52;;;15.25;;
46971;SDS011;32722;43.486;2.766;2022-10-16T07:15:26;21.08;;;14.07;;
46971;SDS011;32722;43.486;2.766;2022-10-16T07:17:53;22.35;;;14.85;;
46971;SDS011;32722;43.486;2.766;2022-10-16T07:20:19;23.45;;;15.07;;
46971;SDS011;32722;43.486;2.766;2022-10-16T07:22:45;18.90;;;13.57;;
46971;SDS011;32722;43.486;2.766;2022-10-16T07:25:11;20.10;;;13.88;;
46971;SDS011;32722;43.486;2.766;2022-10-16T07:27:38;18.25;;;13.32;;
46971;SDS011;32722;43.486;2.766;2022-10-16T07:30:04;17.40;;;13.18;;
46971;SDS011;32722;43.486;2.766;2022-10-16T07:32:31;21.85;;;13.18;;
46971;SDS011;32722;43.486;2.766;2022-10-16T07:34:57;16.77;;;11.30;;
46971;SDS011;32722;43.486;2.766;2022-10-16T07:37:23;19.85;;;12.23;;
46971;SDS011;32722;43.486;2.766;2022-10-16T07:39:49;21.30;;;12.38;;
46971;SDS011;32722;43.486;2.766;2022-10-16T07:42:15;14.57;;;11.63;;
46971;SDS011;32722;43.486;2.766;2022-10-16T07:44:41;18.73;;;11.73;;
46971;SDS011;32722;43.486;2.766;2022-10-16T07:47:08;14.70;;;10.10;;
46971;SDS011;32722;43.486;2.766;2022-10-16T07:49:34;15.80;;;10.00;;
46971;SDS011;32722;43.486;2.766;2022-10-16T07:52:00;15.30;;;9.50;;
46971;SDS011;32722;43.486;2.766;2022-10-16T07:54:26;15.05;;;9.80;;
46971;SDS011;32722;43.486;2.766;2022-10-16T07:56:52;14.38;;;9.25;;
46971;SDS011;32722;43.486;2.766;2022-10-16T07:59:18;15.65;;;9.60;;
46971;SDS011;32722;43.486;2.766;2022-10-16T08:01:44;14.55;;;8.98;;
46971;SDS011;32722;43.486;2.766;2022-10-16T08:04:11;15.27;;;8.50;;
46971;SDS011;32722;43.486;2.766;2022-10-16T08:06:37;12.68;;;8.57;;
46971;SDS011;32722;43.486;2.766;2022-10-16T08:09:04;14.23;;;8.25;;
46971;SDS011;32722;43.486;2.766;2022-10-16T08:11:31;11.52;;;7.60;;
46971;SDS011;32722;43.486;2.766;2022-10-16T08:13:57;11.20;;;7.47;;
46971;SDS011;32722;43.486;2.766;2022-10-16T08:16:23;10.60;;;6.70;;
46971;SDS011;32722;43.486;2.766;2022-10-16T08:18:49;10.32;;;7.30;;
46971;SDS011;32722;43.486;2.766;2022-10-16T08:21:17;13.70;;;8.20;;
46971;SDS011;32722;43.486;2.766;2022-10-16T08:23:44;13.88;;;7.45;;
46971;SDS011;32722;43.486;2.766;2022-10-16T08:26:10;14.73;;;7.50;;
46971;SDS011;32722;43.486;2.766;2022-10-16T08:28:36;10.38;;;7.25;;
46971;SDS011;32722;43.486;2.766;2022-10-16T08:31:10;13.48;;;6.57;;
46971;SDS011;32722;43.486;2.766;2022-10-16T08:33:37;11.00;;;6.53;;
46971;SDS011;32722;43.486;2.766;2022-10-16T08:36:04;14.90;;;7.10;;
46971;SDS011;32722;43.486;2.766;2022-10-16T08:38:32;11.60;;;6.13;;
46971;SDS011;32722;43.486;2.766;2022-10-16T08:41:01;12.70;;;6.30;;
46971;SDS011;32722;43.486;2.766;2022-10-16T08:48:54;11.80;;;5.82;;
46971;SDS011;32722;43.486;2.766;2022-10-16T08:51:26;13.18;;;6.70;;
46971;SDS011;32722;43.486;2.766;2022-10-16T08:56:19;12.27;;;6.25;;
46971;SDS011;32722;43.486;2.766;2022-10-16T08:58:45;10.70;;;5.88;;
46971;SDS011;32722;43.486;2.766;2022-10-16T09:01:13;9.38;;;5.40;;
46971;SDS011;32722;43.486;2.766;2022-10-16T09:04:04;9.05;;;4.90;;
46971;SDS011;32722;43.486;2.766;2022-10-16T09:11:41;10.57;;;5.25;;
46971;SDS011;32722;43.486;2.766;2022-10-16T09:16:42;10.07;;;5.20;;
46971;SDS011;32722;43.486;2.766;2022-10-16T09:21:36;12.57;;;5.28;;
46971;SDS011;32722;43.486;2.766;2022-10-16T09:24:10;14.52;;;4.70;;
46971;SDS011;32722;43.486;2.766;2022-10-16T09:26:37;10.15;;;4.55;;
46971;SDS011;32722;43.486;2.766;2022-10-16T09:29:04;9.80;;;4.78;;
46971;SDS011;32722;43.486;2.766;2022-10-16T09:31:30;9.20;;;4.30;;
46971;SDS011;32722;43.486;2.766;2022-10-16T09:33:59;10.85;;;4.97;;
46971;SDS011;32722;43.486;2.766;2022-10-16T09:36:29;11.05;;;4.80;;
46971;SDS011;32722;43.486;2.766;2022-10-16T09:39:03;9.73;;;4.18;;
46971;SDS011;32722;43.486;2.766;2022-10-16T09:41:29;9.50;;;3.95;;
46971;SDS011;32722;43.486;2.766;2022-10-16T09:43:56;11.30;;;4.57;;
46971;SDS011;32722;43.486;2.766;2022-10-16T09:46:30;10.60;;;3.63;;
46971;SDS011;32722;43.486;2.766;2022-10-16T09:48:57;12.02;;;4.25;;
46971;SDS011;32722;43.486;2.766;2022-10-16T09:51:25;8.07;;;3.65;;
46971;SDS011;32722;43.486;2.766;2022-10-16T09:53:59;8.38;;;3.92;;
46971;SDS011;32722;43.486;2.766;2022-10-16T09:56:29;9.93;;;3.55;;
46971;SDS011;32722;43.486;2.766;2022-10-16T09:58:58;9.88;;;3.92;;
46971;SDS011;32722;43.486;2.766;2022-10-16T10:01:47;10.15;;;3.70;;
46971;SDS011;32722;43.486;2.766;2022-10-16T10:04:11;10.60;;;3.58;;
46971;SDS011;32722;43.486;2.766;2022-10-16T10:06:42;7.65;;;2.95;;
46971;SDS011;32722;43.486;2.766;2022-10-16T10:09:20;8.10;;;3.90;;
46971;SDS011;32722;43.486;2.766;2022-10-16T10:11:59;9.65;;;3.20;;
46971;SDS011;32722;43.486;2.766;2022-10-16T10:22:16;7.90;;;2.95;;
46971;SDS011;32722;43.486;2.766;2022-10-16T10:24:44;6.85;;;3.20;;
46971;SDS011;32722;43.486;2.766;2022-10-16T10:27:15;6.28;;;2.95;;
46971;SDS011;32722;43.486;2.766;2022-10-16T10:29:52;9.68;;;2.95;;
46971;SDS011;32722;43.486;2.766;2022-10-16T10:32:33;7.80;;;2.55;;
46971;SDS011;32722;43.486;2.766;2022-10-16T10:35:07;7.75;;;2.55;;
46971;SDS011;32722;43.486;2.766;2022-10-16T10:37:48;8.43;;;2.53;;
46971;SDS011;32722;43.486;2.766;2022-10-16T10:40:28;7.32;;;3.03;;
46971;SDS011;32722;43.486;2.766;2022-10-16T10:45:42;6.18;;;2.58;;
46971;SDS011;32722;43.486;2.766;2022-10-16T10:50:46;8.93;;;2.90;;
46971;SDS011;32722;43.486;2.766;2022-10-16T10:56:08;6.45;;;2.67;;
46971;SDS011;32722;43.486;2.766;2022-10-16T11:06:51;8.95;;;2.80;;
46971;SDS011;32722;43.486;2.766;2022-10-16T11:09:31;9.95;;;3.05;;
46971;SDS011;32722;43.486;2.766;2022-10-16T11:15:15;6.28;;;2.63;;
46971;SDS011;32722;43.486;2.766;2022-10-16T11:19:58;8.88;;;2.30;;
46971;SDS011;32722;43.486;2.766;2022-10-16T11:30:18;4.20;;;2.20;;
46971;SDS011;32722;43.486;2.766;2022-10-16T11:32:50;6.85;;;2.28;;
46971;SDS011;32722;43.486;2.766;2022-10-16T11:35:23;7.88;;;2.10;;
46971;SDS011;32722;43.486;2.766;2022-10-16T11:37:50;6.05;;;2.20;;
46971;SDS011;32722;43.486;2.766;2022-10-16T11:40:37;5.72;;;1.90;;
46971;SDS011;32722;43.486;2.766;2022-10-16T11:43:17;7.03;;;2.35;;
46971;SDS011;32722;43.486;2.766;2022-10-16T11:45:46;5.28;;;2.35;;
46971;SDS011;32722;43.486;2.766;2022-10-16T11:50:57;5.13;;;2.15;;
46971;SDS011;32722;43.486;2.766;2022-10-16T11:56:01;8.45;;;1.90;;
46971;SDS011;32722;43.486;2.766;2022-10-16T12:03:40;7.35;;;2.17;;
46971;SDS011;32722;43.486;2.766;2022-10-16T12:08:53;5.78;;;2.15;;
46971;SDS011;32722;43.486;2.766;2022-10-16T12:11:24;6.03;;;2.15;;
46971;SDS011;32722;43.486;2.766;2022-10-16T12:16:55;8.48;;;2.20;;
46971;SDS011;32722;43.486;2.766;2022-10-16T12:19:23;8.98;;;2.33;;
46971;SDS011;32722;43.486;2.766;2022-10-16T12:21:50;6.68;;;2.00;;
46971;SDS011;32722;43.486;2.766;2022-10-16T12:26:58;6.03;;;2.30;;
46971;SDS011;32722;43.486;2.766;2022-10-16T12:29:41;6.72;;;2.30;;
46971;SDS011;32722;43.486;2.766;2022-10-16T12:34:53;4.97;;;1.90;;
46971;SDS011;32722;43.486;2.766;2022-10-16T12:37:28;7.38;;;2.38;;
46971;SDS011;32722;43.486;2.766;2022-10-16T12:39:56;5.05;;;1.77;;
46971;SDS011;32722;43.486;2.766;2022-10-16T12:42:30;4.88;;;2.42;;
46971;SDS011;32722;43.486;2.766;2022-10-16T12:44:58;6.82;;;2.03;;
46971;SDS011;32722;43.486;2.766;2022-10-16T12:49:56;6.03;;;2.42;;
46971;SDS011;32722;43.486;2.766;2022-10-16T12:52:23;7.63;;;2.33;;
46971;SDS011;32722;43.486;2.766;2022-10-16T12:54:50;5.30;;;2.30;;
46971;SDS011;32722;43.486;2.766;2022-10-16T12:59:59;7.93;;;2.30;;
46971;SDS011;32722;43.486;2.766;2022-10-16T13:05:13;6.53;;;2.17;;
46971;SDS011;32722;43.486;2.766;2022-10-16T13:18:19;5.60;;;2.83;;
46971;SDS011;32722;43.486;2.766;2022-10-16T13:28:19;10.07;;;2.53;;
46971;SDS011;32722;43.486;2.766;2022-10-16T13:30:51;4.35;;;2.55;;
46971;SDS011;32722;43.486;2.766;2022-10-16T13:33:24;4.75;;;2.58;;
46971;SDS011;32722;43.486;2.766;2022-10-16T13:35:56;4.55;;;2.35;;
46971;SDS011;32722;43.486;2.766;2022-10-16T13:38:23;8.63;;;3.90;;
46971;SDS011;32722;43.486;2.766;2022-10-16T13:41:00;4.75;;;2.50;;
46971;SDS011;32722;43.486;2.766;2022-10-16T13:43:34;5.82;;;2.50;;
46971;SDS011;32722;43.486;2.766;2022-10-16T13:46:05;7.40;;;2.88;;
46971;SDS011;32722;43.486;2.766;2022-10-16T13:51:02;5.95;;;2.95;;
46971;SDS011;32722;43.486;2.766;2022-10-16T13:53:32;7.22;;;2.50;;
46971;SDS011;32722;43.486;2.766;2022-10-16T13:55:59;4.05;;;1.95;;
46971;SDS011;32722;43.486;2.766;2022-10-16T13:58:26;6.32;;;2.67;;
46971;SDS011;32722;43.486;2.766;2022-10-16T14:00:58;5.57;;;2.25;;
46971;SDS011;32722;43.486;2.766;2022-10-16T14:03:25;3.78;;;2.30;;
46971;SDS011;32722;43.486;2.766;2022-10-16T14:05:53;5.95;;;2.05;;
46971;SDS011;32722;43.486;2.766;2022-10-16T14:08:20;6.13;;;2.47;;
46971;SDS011;32722;43.486;2.766;2022-10-16T14:10:51;3.95;;;1.85;;
46971;SDS011;32722;43.486;2.766;2022-10-16T14:13:39;5.45;;;2.33;;
46971;SDS011;32722;43.486;2.766;2022-10-16T14:16:09;9.02;;;4.15;;
46971;SDS011;32722;43.486;2.766;2022-10-16T14:18:37;7.40;;;2.85;;
46971;SDS011;32722;43.486;2.766;2022-10-16T14:21:11;10.35;;;2.50;;
46971;SDS011;32722;43.486;2.766;2022-10-16T14:23:39;7.53;;;2.55;;
46971;SDS011;32722;43.486;2.766;2022-10-16T14:26:06;9.32;;;2.33;;
46971;SDS011;32722;43.486;2.766;2022-10-16T14:28:39;6.85;;;2.47;;
46971;SDS011;32722;43.486;2.766;2022-10-16T14:33:51;8.23;;;3.45;;
46971;SDS011;32722;43.486;2.766;2022-10-16T14:36:19;5.80;;;2.75;;
46971;SDS011;32722;43.486;2.766;2022-10-16T14:38:56;6.72;;;3.03;;
46971;SDS011;32722;43.486;2.766;2022-10-16T14:41:23;6.22;;;2.95;;
46971;SDS011;32722;43.486;2.766;2022-10-16T14:43:51;5.90;;;2.58;;
46971;SDS011;32722;43.486;2.766;2022-10-16T14:46:19;9.77;;;2.63;;
46971;SDS011;32722;43.486;2.766;2022-10-16T14:48:47;6.10;;;3.13;;
46971;SDS011;32722;43.486;2.766;2022-10-16T14:51:15;5.72;;;2.83;;
46971;SDS011;32722;43.486;2.766;2022-10-16T14:53:42;8.50;;;3.55;;
46971;SDS011;32722;43.486;2.766;2022-10-16T14:56:14;6.45;;;2.95;;
46971;SDS011;32722;43.486;2.766;2022-10-16T14:58:42;7.80;;;2.95;;
46971;SDS011;32722;43.486;2.766;2022-10-16T15:01:09;5.78;;;3.03;;
46971;SDS011;32722;43.486;2.766;2022-10-16T15:03:37;5.30;;;2.83;;
46971;SDS011;32722;43.486;2.766;2022-10-16T15:06:03;8.63;;;3.08;;
46971;SDS011;32722;43.486;2.766;2022-10-16T15:08:29;5.82;;;2.60;;
46971;SDS011;32722;43.486;2.766;2022-10-16T15:10:56;5.95;;;2.88;;
46971;SDS011;32722;43.486;2.766;2022-10-16T15:13:22;6.85;;;3.05;;
46971;SDS011;32722;43.486;2.766;2022-10-16T15:15:49;7.80;;;2.90;;
46971;SDS011;32722;43.486;2.766;2022-10-16T15:18:15;6.55;;;2.80;;
46971;SDS011;32722;43.486;2.766;2022-10-16T15:20:47;6.80;;;2.67;;
46971;SDS011;32722;43.486;2.766;2022-10-16T15:23:14;8.35;;;3.28;;
46971;SDS011;32722;43.486;2.766;2022-10-16T15:25:42;4.82;;;2.35;;
46971;SDS011;32722;43.486;2.766;2022-10-16T15:28:09;6.45;;;3.00;;
46971;SDS011;32722;43.486;2.766;2022-10-16T15:30:36;5.53;;;2.50;;
46971;SDS011;32722;43.486;2.766;2022-10-16T15:33:03;9.75;;;2.60;;
46971;SDS011;32722;43.486;2.766;2022-10-16T15:35:30;7.32;;;3.17;;
46971;SDS011;32722;43.486;2.766;2022-10-16T15:37:56;6.70;;;2.90;;
46971;SDS011;32722;43.486;2.766;2022-10-16T15:40:22;5.15;;;2.67;;
46971;SDS011;32722;43.486;2.766;2022-10-16T15:42:48;9.52;;;3.78;;
46971;SDS011;32722;43.486;2.766;2022-10-16T15:45:15;5.82;;;3.08;;
46971;SDS011;32722;43.486;2.766;2022-10-16T15:47:41;7.70;;;3.30;;
46971;SDS011;32722;43.486;2.766;2022-10-16T15:50:11;10.80;;;3.30;;
46971;SDS011;32722;43.486;2.766;2022-10-16T15:52:38;7.55;;;3.50;;
46971;SDS011;32722;43.486;2.766;2022-10-16T15:55:06;10.50;;;3.17;;
46971;SDS011;32722;43.486;2.766;2022-10-16T15:57:32;8.38;;;3.25;;
46971;SDS011;32722;43.486;2.766;2022-10-16T15:59:58;10.52;;;3.35;;
46971;SDS011;32722;43.486;2.766;2022-10-16T16:02:24;11.52;;;4.03;;
46971;SDS011;32722;43.486;2.766;2022-10-16T16:04:50;10.82;;;4.28;;
46971;SDS011;32722;43.486;2.766;2022-10-16T16:07:17;10.77;;;3.47;;
46971;SDS011;32722;43.486;2.766;2022-10-16T16:09:43;8.77;;;4.28;;
46971;SDS011;32722;43.486;2.766;2022-10-16T16:12:10;7.55;;;4.80;;
46971;SDS011;32722;43.486;2.766;2022-10-16T16:14:36;6.80;;;4.00;;
46971;SDS011;32722;43.486;2.766;2022-10-16T16:17:02;9.90;;;4.55;;
46971;SDS011;32722;43.486;2.766;2022-10-16T16:19:28;7.10;;;4.00;;
46971;SDS011;32722;43.486;2.766;2022-10-16T16:21:54;10.40;;;4.30;;
46971;SDS011;32722;43.486;2.766;2022-10-16T16:24:20;10.00;;;4.20;;
46971;SDS011;32722;43.486;2.766;2022-10-16T16:26:47;11.45;;;4.40;;
46971;SDS011;32722;43.486;2.766;2022-10-16T16:29:14;10.85;;;4.07;;
46971;SDS011;32722;43.486;2.766;2022-10-16T16:31:41;10.20;;;4.35;;
46971;SDS011;32722;43.486;2.766;2022-10-16T16:34:07;5.68;;;3.33;;
46971;SDS011;32722;43.486;2.766;2022-10-16T16:36:34;11.93;;;4.18;;
46971;SDS011;32722;43.486;2.766;2022-10-16T16:39:01;10.35;;;4.03;;
46971;SDS011;32722;43.486;2.766;2022-10-16T16:41:28;9.35;;;3.72;;
46971;SDS011;32722;43.486;2.766;2022-10-16T16:43:55;9.27;;;4.13;;
46971;SDS011;32722;43.486;2.766;2022-10-16T16:46:21;8.90;;;4.35;;
46971;SDS011;32722;43.486;2.766;2022-10-16T16:48:48;5.50;;;4.28;;